• Join FlightAware (Why Join?)
  • Login
  • US Flag 
01:46AM EDT


 

Airport Tracker/Info


-or-


 

Live Flight TrackerFlight Track Log ✈ JZA7936 ✈ 15-Jun-2013 ✈ CYYZ - KBWI

Flight Track Log - Related Links

Times and Time Zones

All times are in EDT time to prevent confusion due to time zone crossing. See the JZA7936 flight status page for this flight to view local times or setup timezone preferences in your user account.

Time Position Orientation Groundspeed Altitude Reporting Facility
EDT Latitude Longitude Course Direction KTS MPH feet Rate Location/Type
08:58PM 43.6500 -79.6167 194° South 120 138 1,100  Level Toronto Center
08:59PM 43.6333 -79.6333 216° Southwest 140 161 2,400 1,320 Climbing Toronto Center
09:00PM 43.5833 -79.6500 194° South 150 173 3,800 1,260 Climbing Toronto Center
09:01PM 43.5500 -79.6500 180° South 160 184 5,000 1,140 Climbing Toronto Center
09:02PM 43.4193 -79.4478 186° South  Level Estimated
09:02PM 43.5000 -79.6500 180° South 160 184 6,100  Level Toronto Center
09:03PM 43.3548 -79.4023 194° South  Level Estimated
09:03PM 43.4500 -79.6833 206° Southwest 170 196 7,200  Level Toronto Center
09:04PM 43.4000 -79.6833 180° South 180 207 8,100 960 Climbing Toronto Center
09:05PM 43.3500 -79.6833 180° South 190 219 9,200 1,080 Climbing Toronto Center
09:06PM 43.3000 -79.6833 180° South 190 219 10,300 960 Climbing Toronto Center
09:07PM 43.2500 -79.6833 180° South 190 219 11,200 900 Climbing Toronto Center
09:08PM 43.1833 -79.6833 180° South 200 230 12,100 900 Climbing Toronto Center
09:09PM 43.1333 -79.6500 154° Southeast 200 230 13,000 840 Climbing Toronto Center
09:10PM 43.0667 -79.6500 180° South 210 242 13,800 900 Climbing Toronto Center
09:11PM 43.0167 -79.6500 180° South 210 242 14,900 960 Climbing Toronto Center
09:12PM 42.9500 -79.6333 170° South 210 242 15,800 780 Climbing Toronto Center
09:13PM 42.9000 -79.6333 180° South 210 242 16,500 720 Climbing Toronto Center
09:14PM 42.8333 -79.6333 180° South 210 242 17,300 780 Climbing Toronto Center
09:15PM 42.8294 -79.6433 242° Southwest 214 246 17,600 480 Climbing Cleveland Center
09:16PM 42.7731 -79.6356 174° South 214 246 18,000 420 Climbing Cleveland Center
09:17PM 42.7186 -79.6025 156° South 214 246 18,500 540 Climbing Cleveland Center
09:18PM 42.6722 -79.5469 139° Southeast 214 246 19,100 540 Climbing Cleveland Center
09:19PM 42.6219 -79.4942 142° Southeast 226 260 19,600 480 Climbing Cleveland Center
09:20PM 42.5714 -79.4386 141° Southeast 231 266 20,100 420 Climbing Cleveland Center
09:21PM 42.5250 -79.3858 140° Southeast 226 260 20,500 360 Climbing Cleveland Center
09:22PM 42.4700 -79.3333 145° Southeast 226 260 20,900 300 Climbing Cleveland Center
09:23PM 42.4194 -79.2753 140° Southeast 231 266 21,200 300 Climbing Cleveland Center
09:24PM 42.3667 -79.2203 142° Southeast 231 266 21,600 360 Climbing Cleveland Center
09:25PM 42.3139 -79.1653 142° Southeast 236 272 22,000 300 Climbing Cleveland Center
09:26PM 42.2631 -79.1047 139° Southeast 236 272 22,300 300 Climbing Cleveland Center
09:27PM 42.2103 -79.0497 142° Southeast 236 272 22,700 300 Climbing Cleveland Center
09:28PM 42.1489 -78.9842 142° Southeast 248 285 23,000 120 Climbing Cleveland Center
09:29PM 42.0919 -78.9239 142° Southeast 254 292 23,000  Level Cleveland Center
09:30PM 42.0325 -78.8611 142° Southeast 260 299 23,000  Level Cleveland Center
09:31PM 41.9733 -78.7986 142° Southeast 266 306 23,000  Level Cleveland Center
09:32PM 41.9139 -78.7303 139° Southeast 272 313 23,000  Level Cleveland Center
09:33PM 41.8544 -78.6681 142° Southeast 278 320 23,000  Level Cleveland Center
09:34PM 41.7928 -78.6031 142° Southeast 278 320 23,000  Level Cleveland Center
09:35PM 41.7292 -78.5381 143° Southeast 278 320 23,000  Level Cleveland Center
09:36PM 41.6675 -78.4733 142° Southeast 278 320 23,000  Level Cleveland Center
09:37PM 41.6081 -78.4086 141° Southeast 278 320 23,000  Level Cleveland Center
09:38PM 41.5483 -78.3442 141° Southeast 278 320 23,000  Level Cleveland Center
09:38PM 41.5192 -78.3161 144° Southeast 280 322 23,000  Level New York Center
09:39PM 41.4564 -78.2536 143° Southeast 280 322 23,000  Level New York Center
09:40PM 41.4019 -78.1922 140° Southeast 280 322 23,000  Level New York Center
09:41PM 41.3433 -78.1278 140° Southeast 280 322 23,000  Level New York Center
09:42PM 41.2806 -78.0683 145° Southeast 280 322 23,000  Level New York Center
09:43PM 41.2219 -78.0042 141° Southeast 280 322 23,000  Level New York Center
09:44PM 41.1611 -77.9397 141° Southeast 280 322 23,000  Level New York Center
09:45PM 41.0950 -77.8942 153° Southeast 275 316 23,000 -300 Level New York Center
09:46PM 41.0250 -77.8483 154° Southeast 269 310 22,500 -780 Descending New York Center
09:47PM 40.9486 -77.8019 155° Southeast 290 334 21,500 -1,020 Descending New York Center
09:48PM 40.8722 -77.7500 153° Southeast 306 352 20,500 -1,020 Descending New York Center
09:49PM 40.7942 -77.6983 153° Southeast 311 358 19,500 -1,020 Descending New York Center
09:50PM 40.7158 -77.6464 153° Southeast 311 358 18,500 -780 Descending New York Center
09:51PM 40.6314 -77.5914 154° Southeast 311 358 18,000 -300 Descending New York Center
09:52PM 40.5550 -77.5431 154° Southeast 306 352 18,000  Level New York Center
09:53PM 40.4867 -77.4981 153° Southeast 293 337 18,000  Level New York Center
09:54PM 40.4164 -77.4531 154° Southeast 286 329 18,000 -180 Level New York Center
09:55PM 40.3458 -77.4081 154° Southeast 286 329 17,700 -720 Descending New York Center
09:56PM 40.2694 -77.3572 153° Southeast 293 337 16,600 -1,020 Descending New York Center
09:57PM 40.1911 -77.3061 154° Southeast 312 359 15,700 -1,020 Descending New York Center
09:59PM 40.0667 -77.2167 151° Southeast 317 365 14,000 -1,020 Descending Potomac TRACON
10:00PM 39.9833 -77.1667 155° Southeast 313 360 13,000 -1,020 Descending Potomac TRACON
10:01PM 39.9000 -77.1167 155° Southeast 308 354 12,000 -1,020 Descending Potomac TRACON
10:02PM 39.8333 -77.0833 159° South 307 353 11,000 -1,020 Descending Potomac TRACON
10:03PM 39.7500 -77.0167 148° Southeast 303 349 10,000 -1,020 Descending Potomac TRACON
10:04PM 39.6833 -76.9500 142° Southeast 299 344 9,000 -1,020 Descending Potomac TRACON
10:05PM 39.6333 -76.8833 134° Southeast 290 334 8,000 -1,140 Descending Potomac TRACON
10:06PM 39.5667 -76.8167 142° Southeast 286 329 6,800 -1,380 Descending Potomac TRACON
10:07PM 39.5167 -76.7333 128° Southeast 273 314 5,300 -1,440 Descending Potomac TRACON
10:08PM 39.4667 -76.6667 134° Southeast 261 300 4,000 -660 Descending Potomac TRACON
10:09PM 39.4167 -76.6167 142° Southeast 244 281 4,000 -300 Level Potomac TRACON
10:10PM 39.3500 -76.5833 159° South 244 281 3,500 -540 Descending Potomac TRACON
10:11PM 39.3000 -76.5500 153° Southeast 220 253 3,000 -300 Descending Potomac TRACON
10:12PM 39.2500 -76.5167 153° Southeast 203 234 3,000  Level Potomac TRACON
10:13PM 39.2000 -76.4833 153° Southeast 197 227 3,000  Level Potomac TRACON
10:14PM 39.1500 -76.4667 166° South 193 222 3,000  Level Potomac TRACON
10:15PM 39.1000 -76.5000 207° Southwest 187 215 3,000 -300 Level Potomac TRACON
10:16PM 39.0833 -76.5500 247° West 186 214 2,500 -660 Descending Potomac TRACON
10:17PM 39.1000 -76.5833 303° West 163 188 1,700 -780 Descending Potomac TRACON
10:18PM 39.1333 -76.6167 322° Northwest 132 152 1,000 -720 Descending Potomac TRACON
10:19PM 39.1667 -76.6500 322° Northwest 116 133 300 -660 Descending Potomac TRACON